Vega Philipp — CQID8 — position and weather

sailwx.info

Track history (hours):
 
Tides and Currents Weather Stations Pressure Air Temp Water Temp Dewpoint Dewpoint Depression Visibility Wind Speed Wind Dir Waves Ship Positions

Vega Philipp

Last reported at 2018-May-23 07:56 UTC. Time now 2018-May-23 22:33 UTC.
Position N 53°33' W 003°40'.

Length 155 m; draft 6.7 m.

Type: Cargo ship. MMSI: 255805932.

Date/timePositionNaut miles runAvg speedWind from/ knotsBaromVisibWave heightAir tempDewpointWater temp
2018-May-23 07:56N 53°33' W 003°40'716.2
2018-May-23 07:30N 53°33' W 003°28'612.0
2018-May-23 07:00N 53°32' W 003°18'5 9.9
2018-May-23 06:31N 53°32' W 003°10'713.5
2018-May-23 06:00N 53°27' W 003°02'0 0.9
2018-May-23 05:30N 53°27' W 003°01'0 0.9
2018-May-23 04:57N 53°28' W 003°01'0 0.5
2018-May-23 04:30N 53°28' W 003°01'0 0.0
2018-May-23 04:00N 53°28' W 003°01'0 0.0
2018-May-23 03:27N 53°28' W 003°01'0 0.0
2018-May-23 02:57N 53°28' W 003°01'0 0.0
2018-May-23 02:27N 53°28' W 003°01'0 0.0
2018-May-23 02:00N 53°28' W 003°01'0 0.0
2018-May-23 01:30N 53°28' W 003°01'0 0.0
2018-May-23 00:51N 53°28' W 003°01'0 0.0
2018-May-23 00:27N 53°28' W 003°01'0 0.0
2018-May-22 23:57N 53°28' W 003°01'0 0.0
2018-May-22 23:27N 53°28' W 003°01'0 0.0
2018-May-22 22:57N 53°28' W 003°01'0 0.0
2018-May-22 22:27N 53°28' W 003°01'0 0.0
2018-May-22 21:57N 53°28' W 003°01'0 0.0
2018-May-22 21:27N 53°28' W 003°01'0 0.0
2018-May-22 21:00N 53°28' W 003°01'0 0.0
2018-May-22 20:27N 53°28' W 003°01'0 0.0
2018-May-22 19:57N 53°28' W 003°01'0 0.0
2018-May-22 19:15N 53°28' W 003°01'0 0.0
2018-May-22 19:00N 53°28' W 003°01'0 0.0
2018-May-22 18:21N 53°28' W 003°01'0 0.0
2018-May-22 18:00N 53°28' W 003°01'0 0.0
2018-May-22 17:30N 53°28' W 003°01'0 0.0
2018-May-22 16:57N 53°28' W 003°01'0 0.0
2018-May-22 16:30N 53°28' W 003°01'0 0.0
2018-May-22 16:00N 53°28' W 003°01'0 0.0
2018-May-22 15:25N 53°28' W 003°01'0 0.0
2018-May-22 15:00N 53°28' W 003°01'0 0.0
2018-May-22 14:31N 53°28' W 003°01'0 0.0
2018-May-22 14:00N 53°28' W 003°01'1 1.2
2018-May-22 13:31N 53°27' W 003°01'0 0.0
2018-May-22 13:01N 53°27' W 003°01'0 0.6
2018-May-22 12:30N 53°27' W 003°01'5 9.3
2018-May-22 12:01N 53°30' W 003°06'611.8
2018-May-22 11:29N 53°31' W 003°16'510.2
2018-May-22 11:00N 53°31' W 003°25'510.1
2018-May-22 10:30N 53°31' W 003°33'95 2.4
2018-May-20 18:35N 53°21' W 006°13'0 0.0
2018-May-20 18:23N 53°21' W 006°13'2 4.0
2018-May-20 17:51N 53°21' W 006°09'10 8.5
2018-May-20 16:37N 53°12' W 005°58'110.4
2018-May-20 16:30N 53°11' W 005°58'510.4
2018-May-20 15:59N 53°06' W 005°56'510.3
2018-May-20 15:30N 53°01' W 005°55'24116.1
2018-May-20 00:33N 49°01' W 006°10'114.7
2018-May-20 00:29N 48°60' W 006°11'35115.0
2018-May-19 01:07N 43°32' W 003°11'215.3
2018-May-19 00:59N 43°30' W 003°09'715.3
2018-May-19 00:30N 43°23' W 003°05'3 0.2
2018-May-18 12:28N 43°21' W 003°03'0 0.0
2018-May-17 11:22N 43°21' W 003°03'2 3.1
2018-May-17 10:46N 43°22' W 003°04'2 9.3
2018-May-17 10:31N 43°24' W 003°06'4 7.2
2018-May-17 10:00N 43°27' W 003°09'1314.1
2018-May-17 09:06N 43°39' W 003°15'114.2
2018-May-17 09:00N 43°40' W 003°16'43614.7
2018-May-16 03:23N 50°50' W 005°09'614.4
2018-May-16 03:00N 50°53' W 005°02'1114.5
2018-May-16 02:14N 51°01' W 004°49'314.6
2018-May-16 02:00N 51°03' W 004°45'7716.1
2018-May-15 21:14N 51°29' W 002°50'417.6
2018-May-15 21:00N 51°30' W 002°44'1 1.1
2018-May-15 20:30N 51°30' W 002°43'0 0.7
2018-May-15 19:59N 51°31' W 002°42'0 0.0
2018-May-15 19:29N 51°31' W 002°42'0 0.0
2018-May-15 18:58N 51°31' W 002°42'0 0.0
2018-May-15 18:28N 51°31' W 002°42'0 0.0
2018-May-15 17:58N 51°31' W 002°42'0 0.0
2018-May-15 17:29N 51°31' W 002°42'0 0.0
2018-May-15 16:58N 51°31' W 002°42'0 0.0
2018-May-15 16:28N 51°31' W 002°42'0 0.0
2018-May-15 15:58N 51°31' W 002°42'0 0.0
2018-May-15 15:28N 51°31' W 002°42'0 0.0
2018-May-15 14:58N 51°31' W 002°42'0 0.0
2018-May-15 14:28N 51°31' W 002°42'0 0.0
2018-May-15 13:58N 51°31' W 002°42'0 0.0
2018-May-15 13:28N 51°31' W 002°42'0 0.0
2018-May-15 12:58N 51°31' W 002°42'0 0.0
2018-May-15 12:28N 51°31' W 002°42'0 0.0
2018-May-15 11:58N 51°31' W 002°42'0 0.0
2018-May-15 11:28N 51°31' W 002°42'0 0.0
2018-May-15 10:58N 51°31' W 002°42'0 0.0
2018-May-15 10:28N 51°31' W 002°42'0 0.0
2018-May-15 09:58N 51°31' W 002°42'0 0.0
2018-May-15 09:28N 51°31' W 002°42'0 0.0
2018-May-15 08:58N 51°31' W 002°42'0 0.0
2018-May-15 08:28N 51°31' W 002°42'0 0.0
2018-May-15 07:58N 51°31' W 002°42'0 0.0
2018-May-15 07:28N 51°31' W 002°42'0 0.0
2018-May-15 07:00N 51°31' W 002°42'0 0.0
2018-May-15 06:30N 51°31' W 002°42'0 0.0
2018-May-15 05:59N 51°31' W 002°42'0 0.9
2018-May-15 05:30N 51°30' W 002°43'0 0.8
2018-May-15 05:00N 51°30' W 002°43'128 6.6
2018-May-14 09:37N 53°33' W 003°43'214.8
2018-May-14 09:27N 53°33' W 003°39'714.5
2018-May-14 09:00N 53°33' W 003°28'714.0
2018-May-14 08:30N 53°32' W 003°16'612.2
2018-May-14 07:59N 53°31' W 003°06'5 9.8
2018-May-14 07:30N 53°27' W 003°01'0 0.5
2018-May-14 07:00N 53°27' W 003°01'0 0.1
2018-May-14 06:30N 53°27' W 003°01'1 1.1
2018-May-14 05:59N 53°28' W 003°02'0 0.0
2018-May-14 05:29N 53°28' W 003°02'0 0.0
2018-May-14 05:00N 53°28' W 003°02'0 0.0
2018-May-14 04:30N 53°28' W 003°02'0 0.0
2018-May-14 04:00N 53°28' W 003°02'0 0.0
2018-May-14 03:30N 53°28' W 003°02'0 0.0
2018-May-14 03:00N 53°28' W 003°02'0 0.0
2018-May-14 02:30N 53°28' W 003°02'0 0.0
2018-May-14 02:00N 53°28' W 003°02'0 0.0
2018-May-14 01:30N 53°28' W 003°02'0 0.0
2018-May-14 01:00N 53°28' W 003°02'0 0.0
2018-May-14 00:30N 53°28' W 003°02'0 0.0
2018-May-14 00:00N 53°28' W 003°02'0 0.0
2018-May-13 23:30N 53°28' W 003°02'0 0.0
2018-May-13 23:00N 53°28' W 003°02'0 0.0
2018-May-13 22:30N 53°28' W 003°02'0 0.0
2018-May-13 22:00N 53°28' W 003°02'0 0.0
2018-May-13 21:30N 53°28' W 003°02'0 0.0
2018-May-13 21:00N 53°28' W 003°02'0 0.0
2018-May-13 20:30N 53°28' W 003°02'0 0.0
2018-May-13 20:00N 53°28' W 003°02'0 0.0
2018-May-13 19:30N 53°28' W 003°02'0 0.0
2018-May-13 19:00N 53°28' W 003°02'0 0.0
2018-May-13 18:30N 53°28' W 003°02'0 0.0
2018-May-13 18:00N 53°28' W 003°02'0 0.0
2018-May-13 17:30N 53°28' W 003°02'0 0.0
2018-May-13 17:00N 53°28' W 003°02'0 0.0
2018-May-13 16:30N 53°28' W 003°02'0 0.0
2018-May-13 16:00N 53°28' W 003°02'0 0.0
2018-May-13 15:30N 53°28' W 003°02'0 0.0
2018-May-13 15:00N 53°28' W 003°02'0 0.0
2018-May-13 14:30N 53°28' W 003°02'0 0.0
2018-May-13 13:59N 53°28' W 003°02'0 0.0
2018-May-13 13:30N 53°28' W 003°02'0 0.0
2018-May-13 13:00N 53°28' W 003°02'0 0.0
2018-May-13 12:30N 53°28' W 003°02'0 0.1
2018-May-13 12:00N 53°28' W 003°01'0 0.7
2018-May-13 11:30N 53°27' W 003°01'0 0.6
2018-May-13 11:00N 53°27' W 003°01'0 0.3
2018-May-13 10:30N 53°27' W 003°01'1 2.4
2018-May-13 10:00N 53°28' W 003°03'612.6
2018-May-13 09:30N 53°32' W 003°11'612.0
2018-May-13 09:01N 53°31' W 003°21'4 7.9
2018-May-13 08:29N 53°31' W 003°28'4 8.1
2018-May-13 08:00N 53°31' W 003°34'  
Track history (hours):
 
Tides and Currents Weather Stations Pressure Air Temp Water Temp Dewpoint Dewpoint Depression Visibility Wind Speed Wind Dir Waves Ship Positions

Vega Philipp

Last reported at 2018-May-23 07:56 UTC. Time now 2018-May-23 22:33 UTC.
Position N 53°33' W 003°40'.

Length 155 m; draft 6.7 m.

Type: Cargo ship. MMSI: 255805932.

Date/timePositionNaut miles runAvg speedWind from/ knotsBaromVisibWave heightAir tempDewpointWater temp
2018-May-23 07:56N 53°33' W 003°40'716.2
2018-May-23 07:30N 53°33' W 003°28'612.0
2018-May-23 07:00N 53°32' W 003°18'5 9.9
2018-May-23 06:31N 53°32' W 003°10'713.5
2018-May-23 06:00N 53°27' W 003°02'0 0.9
2018-May-23 05:30N 53°27' W 003°01'0 0.9
2018-May-23 04:57N 53°28' W 003°01'0 0.5
2018-May-23 04:30N 53°28' W 003°01'0 0.0
2018-May-23 04:00N 53°28' W 003°01'0 0.0
2018-May-23 03:27N 53°28' W 003°01'0 0.0
2018-May-23 02:57N 53°28' W 003°01'0 0.0
2018-May-23 02:27N 53°28' W 003°01'0 0.0
2018-May-23 02:00N 53°28' W 003°01'0 0.0
2018-May-23 01:30N 53°28' W 003°01'0 0.0
2018-May-23 00:51N 53°28' W 003°01'0 0.0
2018-May-23 00:27N 53°28' W 003°01'0 0.0
2018-May-22 23:57N 53°28' W 003°01'0 0.0
2018-May-22 23:27N 53°28' W 003°01'0 0.0
2018-May-22 22:57N 53°28' W 003°01'0 0.0
2018-May-22 22:27N 53°28' W 003°01'0 0.0
2018-May-22 21:57N 53°28' W 003°01'0 0.0
2018-May-22 21:27N 53°28' W 003°01'0 0.0
2018-May-22 21:00N 53°28' W 003°01'0 0.0
2018-May-22 20:27N 53°28' W 003°01'0 0.0
2018-May-22 19:57N 53°28' W 003°01'0 0.0
2018-May-22 19:15N 53°28' W 003°01'0 0.0
2018-May-22 19:00N 53°28' W 003°01'0 0.0
2018-May-22 18:21N 53°28' W 003°01'0 0.0
2018-May-22 18:00N 53°28' W 003°01'0 0.0
2018-May-22 17:30N 53°28' W 003°01'0 0.0
2018-May-22 16:57N 53°28' W 003°01'0 0.0
2018-May-22 16:30N 53°28' W 003°01'0 0.0
2018-May-22 16:00N 53°28' W 003°01'0 0.0
2018-May-22 15:25N 53°28' W 003°01'0 0.0
2018-May-22 15:00N 53°28' W 003°01'0 0.0
2018-May-22 14:31N 53°28' W 003°01'0 0.0
2018-May-22 14:00N 53°28' W 003°01'1 1.2
2018-May-22 13:31N 53°27' W 003°01'0 0.0
2018-May-22 13:01N 53°27' W 003°01'0 0.6
2018-May-22 12:30N 53°27' W 003°01'5 9.3
2018-May-22 12:01N 53°30' W 003°06'611.8
2018-May-22 11:29N 53°31' W 003°16'510.2
2018-May-22 11:00N 53°31' W 003°25'510.1
2018-May-22 10:30N 53°31' W 003°33'95 2.4
2018-May-20 18:35N 53°21' W 006°13'0 0.0
2018-May-20 18:23N 53°21' W 006°13'2 4.0
2018-May-20 17:51N 53°21' W 006°09'10 8.5
2018-May-20 16:37N 53°12' W 005°58'110.4
2018-May-20 16:30N 53°11' W 005°58'510.4
2018-May-20 15:59N 53°06' W 005°56'510.3
2018-May-20 15:30N 53°01' W 005°55'24116.1
2018-May-20 00:33N 49°01' W 006°10'114.7
2018-May-20 00:29N 48°60' W 006°11'35115.0
2018-May-19 01:07N 43°32' W 003°11'215.3
2018-May-19 00:59N 43°30' W 003°09'715.3
2018-May-19 00:30N 43°23' W 003°05'3 0.2
2018-May-18 12:28N 43°21' W 003°03'0 0.0
2018-May-17 11:22N 43°21' W 003°03'2 3.1
2018-May-17 10:46N 43°22' W 003°04'2 9.3
2018-May-17 10:31N 43°24' W 003°06'4 7.2
2018-May-17 10:00N 43°27' W 003°09'1314.1
2018-May-17 09:06N 43°39' W 003°15'114.2
2018-May-17 09:00N 43°40' W 003°16'43614.7
2018-May-16 03:23N 50°50' W 005°09'614.4
2018-May-16 03:00N 50°53' W 005°02'1114.5
2018-May-16 02:14N 51°01' W 004°49'314.6
2018-May-16 02:00N 51°03' W 004°45'7716.1
2018-May-15 21:14N 51°29' W 002°50'417.6
2018-May-15 21:00N 51°30' W 002°44'1 1.1
2018-May-15 20:30N 51°30' W 002°43'0 0.7
2018-May-15 19:59N 51°31' W 002°42'0 0.0
2018-May-15 19:29N 51°31' W 002°42'0 0.0
2018-May-15 18:58N 51°31' W 002°42'0 0.0
2018-May-15 18:28N 51°31' W 002°42'0 0.0
2018-May-15 17:58N 51°31' W 002°42'0 0.0
2018-May-15 17:29N 51°31' W 002°42'0 0.0
2018-May-15 16:58N 51°31' W 002°42'0 0.0
2018-May-15 16:28N 51°31' W 002°42'0 0.0
2018-May-15 15:58N 51°31' W 002°42'0 0.0
2018-May-15 15:28N 51°31' W 002°42'0 0.0
2018-May-15 14:58N 51°31' W 002°42'0 0.0
2018-May-15 14:28N 51°31' W 002°42'0 0.0
2018-May-15 13:58N 51°31' W 002°42'0 0.0
2018-May-15 13:28N 51°31' W 002°42'0 0.0
2018-May-15 12:58N 51°31' W 002°42'0 0.0
2018-May-15 12:28N 51°31' W 002°42'0 0.0
2018-May-15 11:58N 51°31' W 002°42'0 0.0
2018-May-15 11:28N 51°31' W 002°42'0 0.0
2018-May-15 10:58N 51°31' W 002°42'0 0.0
2018-May-15 10:28N 51°31' W 002°42'0 0.0
2018-May-15 09:58N 51°31' W 002°42'0 0.0
2018-May-15 09:28N 51°31' W 002°42'0 0.0
2018-May-15 08:58N 51°31' W 002°42'0 0.0
2018-May-15 08:28N 51°31' W 002°42'0 0.0
2018-May-15 07:58N 51°31' W 002°42'0 0.0
2018-May-15 07:28N 51°31' W 002°42'0 0.0
2018-May-15 07:00N 51°31' W 002°42'0 0.0
2018-May-15 06:30N 51°31' W 002°42'0 0.0
2018-May-15 05:59N 51°31' W 002°42'0 0.9
2018-May-15 05:30N 51°30' W 002°43'0 0.8
2018-May-15 05:00N 51°30' W 002°43'128 6.6
2018-May-14 09:37N 53°33' W 003°43'214.8
2018-May-14 09:27N 53°33' W 003°39'714.5
2018-May-14 09:00N 53°33' W 003°28'714.0
2018-May-14 08:30N 53°32' W 003°16'612.2
2018-May-14 07:59N 53°31' W 003°06'5 9.8
2018-May-14 07:30N 53°27' W 003°01'0 0.5
2018-May-14 07:00N 53°27' W 003°01'0 0.1
2018-May-14 06:30N 53°27' W 003°01'1 1.1
2018-May-14 05:59N 53°28' W 003°02'0 0.0
2018-May-14 05:29N 53°28' W 003°02'0 0.0
2018-May-14 05:00N 53°28' W 003°02'0 0.0
2018-May-14 04:30N 53°28' W 003°02'0 0.0
2018-May-14 04:00N 53°28' W 003°02'0 0.0
2018-May-14 03:30N 53°28' W 003°02'0 0.0
2018-May-14 03:00N 53°28' W 003°02'0 0.0
2018-May-14 02:30N 53°28' W 003°02'0 0.0
2018-May-14 02:00N 53°28' W 003°02'0 0.0
2018-May-14 01:30N 53°28' W 003°02'0 0.0
2018-May-14 01:00N 53°28' W 003°02'0 0.0
2018-May-14 00:30N 53°28' W 003°02'0 0.0
2018-May-14 00:00N 53°28' W 003°02'0 0.0
2018-May-13 23:30N 53°28' W 003°02'0 0.0
2018-May-13 23:00N 53°28' W 003°02'0 0.0
2018-May-13 22:30N 53°28' W 003°02'0 0.0
2018-May-13 22:00N 53°28' W 003°02'0 0.0
2018-May-13 21:30N 53°28' W 003°02'0 0.0
2018-May-13 21:00N 53°28' W 003°02'0 0.0
2018-May-13 20:30N 53°28' W 003°02'0 0.0
2018-May-13 20:00N 53°28' W 003°02'0 0.0
2018-May-13 19:30N 53°28' W 003°02'0 0.0
2018-May-13 19:00N 53°28' W 003°02'0 0.0
2018-May-13 18:30N 53°28' W 003°02'0 0.0
2018-May-13 18:00N 53°28' W 003°02'0 0.0
2018-May-13 17:30N 53°28' W 003°02'0 0.0
2018-May-13 17:00N 53°28' W 003°02'0 0.0
2018-May-13 16:30N 53°28' W 003°02'0 0.0
2018-May-13 16:00N 53°28' W 003°02'0 0.0
2018-May-13 15:30N 53°28' W 003°02'0 0.0
2018-May-13 15:00N 53°28' W 003°02'0 0.0
2018-May-13 14:30N 53°28' W 003°02'0 0.0
2018-May-13 13:59N 53°28' W 003°02'0 0.0
2018-May-13 13:30N 53°28' W 003°02'0 0.0
2018-May-13 13:00N 53°28' W 003°02'0 0.0
2018-May-13 12:30N 53°28' W 003°02'0 0.1
2018-May-13 12:00N 53°28' W 003°01'0 0.7
2018-May-13 11:30N 53°27' W 003°01'0 0.6
2018-May-13 11:00N 53°27' W 003°01'0 0.3
2018-May-13 10:30N 53°27' W 003°01'1 2.4
2018-May-13 10:00N 53°28' W 003°03'612.6
2018-May-13 09:30N 53°32' W 003°11'612.0
2018-May-13 09:01N 53°31' W 003°21'4 7.9
2018-May-13 08:29N 53°31' W 003°28'4 8.1
2018-May-13 08:00N 53°31' W 003°34'  

Dump ship's entire track history